sensor_id;sensor_type;location;lat;lon;timestamp;temperature;humidity
5061;DHT22;2549;52.128;21.068;2024-03-08T00:01:38;5.20;91.60
5061;DHT22;2549;52.128;21.068;2024-03-08T00:04:05;5.10;91.70
5061;DHT22;2549;52.128;21.068;2024-03-08T00:06:32;5.20;91.70
5061;DHT22;2549;52.128;21.068;2024-03-08T00:08:59;5.10;91.70
5061;DHT22;2549;52.128;21.068;2024-03-08T00:11:26;5.10;91.70
5061;DHT22;2549;52.128;21.068;2024-03-08T00:13:53;5.10;91.70
5061;DHT22;2549;52.128;21.068;2024-03-08T00:16:20;5.20;91.80
5061;DHT22;2549;52.128;21.068;2024-03-08T00:18:50;5.20;91.80
5061;DHT22;2549;52.128;21.068;2024-03-08T00:21:17;5.10;91.80
5061;DHT22;2549;52.128;21.068;2024-03-08T00:23:44;5.10;91.80
5061;DHT22;2549;52.128;21.068;2024-03-08T00:26:11;5.10;91.80
5061;DHT22;2549;52.128;21.068;2024-03-08T00:28:38;5.10;91.90
5061;DHT22;2549;52.128;21.068;2024-03-08T00:31:05;5.00;91.90
5061;DHT22;2549;52.128;21.068;2024-03-08T00:33:33;4.90;91.90
5061;DHT22;2549;52.128;21.068;2024-03-08T00:36:00;4.90;92.00
5061;DHT22;2549;52.128;21.068;2024-03-08T00:38:27;4.90;92.20
5061;DHT22;2549;52.128;21.068;2024-03-08T00:40:54;4.80;92.10
5061;DHT22;2549;52.128;21.068;2024-03-08T00:43:23;4.80;92.20
5061;DHT22;2549;52.128;21.068;2024-03-08T00:45:50;4.80;92.10
5061;DHT22;2549;52.128;21.068;2024-03-08T00:48:17;4.80;92.20
5061;DHT22;2549;52.128;21.068;2024-03-08T00:50:44;4.70;92.30
5061;DHT22;2549;52.128;21.068;2024-03-08T00:53:13;4.70;92.50
5061;DHT22;2549;52.128;21.068;2024-03-08T00:55:40;4.60;92.50
5061;DHT22;2549;52.128;21.068;2024-03-08T00:58:07;4.60;92.90
5061;DHT22;2549;52.128;21.068;2024-03-08T01:00:36;4.60;92.70
5061;DHT22;2549;52.128;21.068;2024-03-08T01:03:05;4.60;92.70
5061;DHT22;2549;52.128;21.068;2024-03-08T01:05:33;4.60;92.70
5061;DHT22;2549;52.128;21.068;2024-03-08T01:08:02;4.50;92.70
5061;DHT22;2549;52.128;21.068;2024-03-08T01:10:30;4.50;92.70
5061;DHT22;2549;52.128;21.068;2024-03-08T01:12:56;4.50;92.80
5061;DHT22;2549;52.128;21.068;2024-03-08T01:15:26;4.50;92.80
5061;DHT22;2549;52.128;21.068;2024-03-08T01:17:53;4.50;92.90
5061;DHT22;2549;52.128;21.068;2024-03-08T01:20:21;4.50;92.90
5061;DHT22;2549;52.128;21.068;2024-03-08T01:22:47;4.40;92.90
5061;DHT22;2549;52.128;21.068;2024-03-08T01:25:14;4.40;93.00
5061;DHT22;2549;52.128;21.068;2024-03-08T01:27:41;4.40;93.20
5061;DHT22;2549;52.128;21.068;2024-03-08T01:30:11;4.40;93.20
5061;DHT22;2549;52.128;21.068;2024-03-08T01:32:38;4.40;93.10
5061;DHT22;2549;52.128;21.068;2024-03-08T01:35:05;4.40;93.10
5061;DHT22;2549;52.128;21.068;2024-03-08T01:37:32;4.40;93.10
5061;DHT22;2549;52.128;21.068;2024-03-08T01:39:59;4.40;93.20
5061;DHT22;2549;52.128;21.068;2024-03-08T01:42:26;4.40;93.20
5061;DHT22;2549;52.128;21.068;2024-03-08T01:44:56;4.40;93.30
5061;DHT22;2549;52.128;21.068;2024-03-08T01:47:23;4.30;93.30
5061;DHT22;2549;52.128;21.068;2024-03-08T01:49:51;4.40;93.40
5061;DHT22;2549;52.128;21.068;2024-03-08T01:52:19;4.40;93.40
5061;DHT22;2549;52.128;21.068;2024-03-08T01:54:47;4.40;93.40
5061;DHT22;2549;52.128;21.068;2024-03-08T01:57:15;4.30;93.30
5061;DHT22;2549;52.128;21.068;2024-03-08T01:59:42;4.30;93.40
5061;DHT22;2549;52.128;21.068;2024-03-08T02:02:11;4.30;93.70
5061;DHT22;2549;52.128;21.068;2024-03-08T02:04:41;4.20;93.40
5061;DHT22;2549;52.128;21.068;2024-03-08T02:07:09;4.20;93.50
5061;DHT22;2549;52.128;21.068;2024-03-08T02:09:37;4.20;93.50
5061;DHT22;2549;52.128;21.068;2024-03-08T02:12:04;4.20;93.50
5061;DHT22;2549;52.128;21.068;2024-03-08T02:14:31;4.10;93.60
5061;DHT22;2549;52.128;21.068;2024-03-08T02:17:01;4.10;93.60
5061;DHT22;2549;52.128;21.068;2024-03-08T02:19:28;4.10;93.70
5061;DHT22;2549;52.128;21.068;2024-03-08T02:21:55;4.10;93.80
5061;DHT22;2549;52.128;21.068;2024-03-08T02:24:23;4.10;93.80
5061;DHT22;2549;52.128;21.068;2024-03-08T02:26:50;4.10;93.80
5061;DHT22;2549;52.128;21.068;2024-03-08T02:29:18;4.10;93.80
5061;DHT22;2549;52.128;21.068;2024-03-08T02:31:45;4.10;93.80
5061;DHT22;2549;52.128;21.068;2024-03-08T02:34:12;4.10;93.70
5061;DHT22;2549;52.128;21.068;2024-03-08T02:36:38;4.00;93.80
5061;DHT22;2549;52.128;21.068;2024-03-08T02:39:05;4.00;93.90
5061;DHT22;2549;52.128;21.068;2024-03-08T02:41:32;3.90;94.00
5061;DHT22;2549;52.128;21.068;2024-03-08T02:43:59;3.90;94.10
5061;DHT22;2549;52.128;21.068;2024-03-08T02:46:26;3.90;94.10
5061;DHT22;2549;52.128;21.068;2024-03-08T02:48:53;3.80;94.20
5061;DHT22;2549;52.128;21.068;2024-03-08T02:51:20;3.80;94.30
5061;DHT22;2549;52.128;21.068;2024-03-08T02:53:47;3.70;94.30
5061;DHT22;2549;52.128;21.068;2024-03-08T02:56:15;3.70;94.40
5061;DHT22;2549;52.128;21.068;2024-03-08T02:58:43;3.70;94.50
5061;DHT22;2549;52.128;21.068;2024-03-08T03:01:15;3.60;94.50
5061;DHT22;2549;52.128;21.068;2024-03-08T03:03:42;3.60;94.50
5061;DHT22;2549;52.128;21.068;2024-03-08T03:06:09;3.60;94.60
5061;DHT22;2549;52.128;21.068;2024-03-08T03:08:36;3.60;94.60
5061;DHT22;2549;52.128;21.068;2024-03-08T03:11:03;3.60;94.60
5061;DHT22;2549;52.128;21.068;2024-03-08T03:13:30;3.60;94.70
5061;DHT22;2549;52.128;21.068;2024-03-08T03:15:57;3.60;94.80
5061;DHT22;2549;52.128;21.068;2024-03-08T03:18:24;3.50;94.80
5061;DHT22;2549;52.128;21.068;2024-03-08T03:20:52;3.50;94.90
5061;DHT22;2549;52.128;21.068;2024-03-08T03:23:19;3.50;95.00
5061;DHT22;2549;52.128;21.068;2024-03-08T03:25:47;3.50;95.10
5061;DHT22;2549;52.128;21.068;2024-03-08T03:28:14;3.60;95.20
5061;DHT22;2549;52.128;21.068;2024-03-08T03:30:45;3.60;95.20
5061;DHT22;2549;52.128;21.068;2024-03-08T03:33:13;3.60;95.30
5061;DHT22;2549;52.128;21.068;2024-03-08T03:35:42;3.70;95.30
5061;DHT22;2549;52.128;21.068;2024-03-08T03:38:11;3.70;95.10
5061;DHT22;2549;52.128;21.068;2024-03-08T03:40:39;3.70;95.10
5061;DHT22;2549;52.128;21.068;2024-03-08T03:43:07;3.70;95.10
5061;DHT22;2549;52.128;21.068;2024-03-08T03:45:36;3.70;95.10
5061;DHT22;2549;52.128;21.068;2024-03-08T03:48:05;3.70;95.10
5061;DHT22;2549;52.128;21.068;2024-03-08T03:50:34;3.60;95.10
5061;DHT22;2549;52.128;21.068;2024-03-08T03:53:03;3.60;95.10
5061;DHT22;2549;52.128;21.068;2024-03-08T03:55:30;3.60;95.10
5061;DHT22;2549;52.128;21.068;2024-03-08T03:57:57;3.60;95.10
5061;DHT22;2549;52.128;21.068;2024-03-08T04:00:26;3.50;95.10
5061;DHT22;2549;52.128;21.068;2024-03-08T04:02:54;3.50;95.10
5061;DHT22;2549;52.128;21.068;2024-03-08T04:05:23;3.50;95.20
5061;DHT22;2549;52.128;21.068;2024-03-08T04:07:50;3.40;95.10
5061;DHT22;2549;52.128;21.068;2024-03-08T04:10:16;3.40;95.10
5061;DHT22;2549;52.128;21.068;2024-03-08T04:12:43;3.40;95.60
5061;DHT22;2549;52.128;21.068;2024-03-08T04:15:11;3.40;95.40
5061;DHT22;2549;52.128;21.068;2024-03-08T04:17:39;3.40;95.50
5061;DHT22;2549;52.128;21.068;2024-03-08T04:20:06;3.30;95.60
5061;DHT22;2549;52.128;21.068;2024-03-08T04:22:37;3.30;95.60
5061;DHT22;2549;52.128;21.068;2024-03-08T04:25:07;3.30;95.60
5061;DHT22;2549;52.128;21.068;2024-03-08T04:27:34;3.30;95.60
5061;DHT22;2549;52.128;21.068;2024-03-08T04:30:02;3.30;95.50
5061;DHT22;2549;52.128;21.068;2024-03-08T04:32:29;3.30;95.50
5061;DHT22;2549;52.128;21.068;2024-03-08T04:35:00;3.20;95.60
5061;DHT22;2549;52.128;21.068;2024-03-08T04:37:30;3.20;95.60
5061;DHT22;2549;52.128;21.068;2024-03-08T04:39:58;3.20;95.70
5061;DHT22;2549;52.128;21.068;2024-03-08T04:42:26;3.20;95.80
5061;DHT22;2549;52.128;21.068;2024-03-08T04:44:55;3.10;95.70
5061;DHT22;2549;52.128;21.068;2024-03-08T04:47:22;3.10;95.80
5061;DHT22;2549;52.128;21.068;2024-03-08T04:49:49;3.10;95.90
5061;DHT22;2549;52.128;21.068;2024-03-08T04:52:17;3.10;96.00
5061;DHT22;2549;52.128;21.068;2024-03-08T04:54:44;3.10;96.00
5061;DHT22;2549;52.128;21.068;2024-03-08T04:57:14;3.10;96.00
5061;DHT22;2549;52.128;21.068;2024-03-08T04:59:41;3.10;96.00
5061;DHT22;2549;52.128;21.068;2024-03-08T05:02:07;3.10;96.10
5061;DHT22;2549;52.128;21.068;2024-03-08T05:04:34;3.10;96.10
5061;DHT22;2549;52.128;21.068;2024-03-08T05:07:02;3.10;96.30
5061;DHT22;2549;52.128;21.068;2024-03-08T05:09:29;3.10;95.90
5061;DHT22;2549;52.128;21.068;2024-03-08T05:11:58;3.10;96.00
5061;DHT22;2549;52.128;21.068;2024-03-08T05:14:25;3.10;96.00
5061;DHT22;2549;52.128;21.068;2024-03-08T05:16:52;3.10;96.00
5061;DHT22;2549;52.128;21.068;2024-03-08T05:19:20;3.10;96.00
5061;DHT22;2549;52.128;21.068;2024-03-08T05:21:48;3.10;95.90
5061;DHT22;2549;52.128;21.068;2024-03-08T05:24:17;3.00;95.90
5061;DHT22;2549;52.128;21.068;2024-03-08T05:26:45;3.00;96.00
5061;DHT22;2549;52.128;21.068;2024-03-08T05:29:13;3.00;96.00
5061;DHT22;2549;52.128;21.068;2024-03-08T05:31:49;3.00;96.00
5061;DHT22;2549;52.128;21.068;2024-03-08T05:34:17;3.00;96.10
5061;DHT22;2549;52.128;21.068;2024-03-08T05:36:44;2.90;96.10
5061;DHT22;2549;52.128;21.068;2024-03-08T05:39:15;2.90;96.20
5061;DHT22;2549;52.128;21.068;2024-03-08T05:41:43;2.90;96.20
5061;DHT22;2549;52.128;21.068;2024-03-08T05:44:11;2.90;96.40
5061;DHT22;2549;52.128;21.068;2024-03-08T05:46:38;2.90;96.40
5061;DHT22;2549;52.128;21.068;2024-03-08T05:49:05;3.00;96.50
5061;DHT22;2549;52.128;21.068;2024-03-08T05:51:33;3.00;96.60
5061;DHT22;2549;52.128;21.068;2024-03-08T05:54:04;3.00;96.60
5061;DHT22;2549;52.128;21.068;2024-03-08T05:56:33;3.00;96.60
5061;DHT22;2549;52.128;21.068;2024-03-08T05:59:00;3.00;96.70
5061;DHT22;2549;52.128;21.068;2024-03-08T06:01:28;3.10;96.80
5061;DHT22;2549;52.128;21.068;2024-03-08T06:03:56;3.10;96.80
5061;DHT22;2549;52.128;21.068;2024-03-08T06:06:24;3.10;96.80
5061;DHT22;2549;52.128;21.068;2024-03-08T06:08:51;3.20;97.00
5061;DHT22;2549;52.128;21.068;2024-03-08T06:11:19;3.20;97.00
5061;DHT22;2549;52.128;21.068;2024-03-08T06:13:47;3.20;97.10
5061;DHT22;2549;52.128;21.068;2024-03-08T06:16:14;3.30;97.20
5061;DHT22;2549;52.128;21.068;2024-03-08T06:18:41;3.40;97.30
5061;DHT22;2549;52.128;21.068;2024-03-08T06:21:09;3.40;97.40
5061;DHT22;2549;52.128;21.068;2024-03-08T06:23:38;3.40;97.40
5061;DHT22;2549;52.128;21.068;2024-03-08T06:26:06;3.50;97.50
5061;DHT22;2549;52.128;21.068;2024-03-08T06:28:33;3.50;97.50
5061;DHT22;2549;52.128;21.068;2024-03-08T06:31:02;3.60;97.50
5061;DHT22;2549;52.128;21.068;2024-03-08T06:33:29;3.60;97.50
5061;DHT22;2549;52.128;21.068;2024-03-08T06:35:57;3.70;97.60
5061;DHT22;2549;52.128;21.068;2024-03-08T06:38:24;3.70;97.60
5061;DHT22;2549;52.128;21.068;2024-03-08T06:40:52;3.80;97.70
5061;DHT22;2549;52.128;21.068;2024-03-08T06:43:19;3.80;97.70
5061;DHT22;2549;52.128;21.068;2024-03-08T06:45:46;3.90;97.70
5061;DHT22;2549;52.128;21.068;2024-03-08T06:48:17;3.90;97.70
5061;DHT22;2549;52.128;21.068;2024-03-08T06:50:45;4.00;97.70
5061;DHT22;2549;52.128;21.068;2024-03-08T06:53:13;4.00;97.70
5061;DHT22;2549;52.128;21.068;2024-03-08T06:55:40;4.10;97.70
5061;DHT22;2549;52.128;21.068;2024-03-08T06:58:07;4.10;97.70
5061;DHT22;2549;52.128;21.068;2024-03-08T07:00:34;4.10;97.70
5061;DHT22;2549;52.128;21.068;2024-03-08T07:03:02;4.20;97.80
5061;DHT22;2549;52.128;21.068;2024-03-08T07:05:30;4.30;97.70
5061;DHT22;2549;52.128;21.068;2024-03-08T07:07:58;4.30;97.70
5061;DHT22;2549;52.128;21.068;2024-03-08T07:10:25;4.40;97.60
5061;DHT22;2549;52.128;21.068;2024-03-08T07:12:52;4.40;97.50
5061;DHT22;2549;52.128;21.068;2024-03-08T07:15:20;4.50;97.50
5061;DHT22;2549;52.128;21.068;2024-03-08T07:17:47;4.50;97.40
5061;DHT22;2549;52.128;21.068;2024-03-08T07:20:14;4.60;97.40
5061;DHT22;2549;52.128;21.068;2024-03-08T07:22:46;4.60;97.30
5061;DHT22;2549;52.128;21.068;2024-03-08T07:25:19;4.70;97.30
5061;DHT22;2549;52.128;21.068;2024-03-08T07:27:49;4.70;97.20
5061;DHT22;2549;52.128;21.068;2024-03-08T07:30:16;4.80;97.20
5061;DHT22;2549;52.128;21.068;2024-03-08T07:33:04;4.80;97.10
5061;DHT22;2549;52.128;21.068;2024-03-08T07:35:31;4.80;97.10
5061;DHT22;2549;52.128;21.068;2024-03-08T07:37:58;4.90;97.10
5061;DHT22;2549;52.128;21.068;2024-03-08T07:40:26;5.00;97.10
5061;DHT22;2549;52.128;21.068;2024-03-08T07:42:53;5.00;97.00
5061;DHT22;2549;52.128;21.068;2024-03-08T07:45:20;5.00;97.00
5061;DHT22;2549;52.128;21.068;2024-03-08T07:47:49;5.10;96.70
5061;DHT22;2549;52.128;21.068;2024-03-08T07:50:17;5.10;96.50
5061;DHT22;2549;52.128;21.068;2024-03-08T07:52:46;5.20;96.50
5061;DHT22;2549;52.128;21.068;2024-03-08T07:55:13;5.20;96.40
5061;DHT22;2549;52.128;21.068;2024-03-08T07:57:39;5.30;96.10
5061;DHT22;2549;52.128;21.068;2024-03-08T08:00:07;5.30;96.00
5061;DHT22;2549;52.128;21.068;2024-03-08T08:02:35;5.40;95.70
5061;DHT22;2549;52.128;21.068;2024-03-08T08:05:06;5.40;95.20
5061;DHT22;2549;52.128;21.068;2024-03-08T08:07:33;5.50;95.20
5061;DHT22;2549;52.128;21.068;2024-03-08T08:10:00;5.50;95.00
5061;DHT22;2549;52.128;21.068;2024-03-08T08:12:27;5.60;95.00
5061;DHT22;2549;52.128;21.068;2024-03-08T08:14:55;5.60;94.80
5061;DHT22;2549;52.128;21.068;2024-03-08T08:17:23;5.70;94.90
5061;DHT22;2549;52.128;21.068;2024-03-08T08:19:50;5.70;94.60
5061;DHT22;2549;52.128;21.068;2024-03-08T08:22:17;5.80;94.50
5061;DHT22;2549;52.128;21.068;2024-03-08T08:24:45;5.80;94.40
5061;DHT22;2549;52.128;21.068;2024-03-08T08:27:12;5.80;94.30
5061;DHT22;2549;52.128;21.068;2024-03-08T08:29:39;5.90;94.30
5061;DHT22;2549;52.128;21.068;2024-03-08T08:32:06;6.00;94.00
5061;DHT22;2549;52.128;21.068;2024-03-08T08:34:33;6.00;93.50
5061;DHT22;2549;52.128;21.068;2024-03-08T08:37:00;6.00;93.20
5061;DHT22;2549;52.128;21.068;2024-03-08T08:39:27;6.00;93.20
5061;DHT22;2549;52.128;21.068;2024-03-08T08:41:54;6.00;93.20
5061;DHT22;2549;52.128;21.068;2024-03-08T08:44:22;6.10;93.30
5061;DHT22;2549;52.128;21.068;2024-03-08T08:46:49;6.10;92.80
5061;DHT22;2549;52.128;21.068;2024-03-08T08:49:18;6.10;92.70
5061;DHT22;2549;52.128;21.068;2024-03-08T08:51:50;6.20;92.90
5061;DHT22;2549;52.128;21.068;2024-03-08T08:54:18;6.30;92.90
5061;DHT22;2549;52.128;21.068;2024-03-08T08:56:45;6.30;92.90
5061;DHT22;2549;52.128;21.068;2024-03-08T08:59:12;6.30;92.60
5061;DHT22;2549;52.128;21.068;2024-03-08T09:01:49;6.40;92.50
5061;DHT22;2549;52.128;21.068;2024-03-08T09:04:17;6.40;92.50
5061;DHT22;2549;52.128;21.068;2024-03-08T09:06:44;6.50;92.60
5061;DHT22;2549;52.128;21.068;2024-03-08T09:09:11;6.50;92.30
5061;DHT22;2549;52.128;21.068;2024-03-08T09:11:40;6.60;91.80
5061;DHT22;2549;52.128;21.068;2024-03-08T09:14:10;6.60;91.10
5061;DHT22;2549;52.128;21.068;2024-03-08T09:16:38;6.60;91.00
5061;DHT22;2549;52.128;21.068;2024-03-08T09:19:05;6.70;90.80
5061;DHT22;2549;52.128;21.068;2024-03-08T09:21:33;6.70;90.50
5061;DHT22;2549;52.128;21.068;2024-03-08T09:24:01;6.80;90.30
5061;DHT22;2549;52.128;21.068;2024-03-08T09:26:28;6.80;90.20
5061;DHT22;2549;52.128;21.068;2024-03-08T09:28:55;6.90;90.30
5061;DHT22;2549;52.128;21.068;2024-03-08T09:31:23;6.90;90.30
5061;DHT22;2549;52.128;21.068;2024-03-08T09:33:50;6.90;89.90
5061;DHT22;2549;52.128;21.068;2024-03-08T09:36:17;6.90;88.80
5061;DHT22;2549;52.128;21.068;2024-03-08T09:38:44;7.00;88.10
5061;DHT22;2549;52.128;21.068;2024-03-08T09:41:11;7.00;87.70
5061;DHT22;2549;52.128;21.068;2024-03-08T09:43:39;7.00;85.60
5061;DHT22;2549;52.128;21.068;2024-03-08T09:46:07;7.10;85.00
5061;DHT22;2549;52.128;21.068;2024-03-08T09:48:35;7.10;85.70
5061;DHT22;2549;52.128;21.068;2024-03-08T09:51:03;7.20;86.10
5061;DHT22;2549;52.128;21.068;2024-03-08T09:53:31;7.20;84.90
5061;DHT22;2549;52.128;21.068;2024-03-08T09:55:58;7.20;83.70
5061;DHT22;2549;52.128;21.068;2024-03-08T09:58:26;7.30;83.90
5061;DHT22;2549;52.128;21.068;2024-03-08T10:01:03;7.30;84.40
5061;DHT22;2549;52.128;21.068;2024-03-08T10:03:31;7.40;84.30
5061;DHT22;2549;52.128;21.068;2024-03-08T10:05:59;7.40;84.20
5061;DHT22;2549;52.128;21.068;2024-03-08T10:08:29;7.40;83.20
5061;DHT22;2549;52.128;21.068;2024-03-08T10:10:57;7.50;81.90
5061;DHT22;2549;52.128;21.068;2024-03-08T10:13:27;7.50;81.60
5061;DHT22;2549;52.128;21.068;2024-03-08T10:15:54;7.50;82.10
5061;DHT22;2549;52.128;21.068;2024-03-08T10:18:22;7.50;82.00
5061;DHT22;2549;52.128;21.068;2024-03-08T10:21:06;7.50;82.00
5061;DHT22;2549;52.128;21.068;2024-03-08T10:23:34;7.50;81.00
5061;DHT22;2549;52.128;21.068;2024-03-08T10:26:17;7.50;80.80
5061;DHT22;2549;52.128;21.068;2024-03-08T10:28:50;7.60;81.00
5061;DHT22;2549;52.128;21.068;2024-03-08T10:31:18;7.60;80.90
5061;DHT22;2549;52.128;21.068;2024-03-08T10:33:46;7.60;81.20
5061;DHT22;2549;52.128;21.068;2024-03-08T10:36:15;7.60;81.30
5061;DHT22;2549;52.128;21.068;2024-03-08T10:38:43;7.70;80.90
5061;DHT22;2549;52.128;21.068;2024-03-08T10:41:15;7.70;80.40
5061;DHT22;2549;52.128;21.068;2024-03-08T10:49:26;7.80;80.60
5061;DHT22;2549;52.128;21.068;2024-03-08T10:51:57;7.90;80.60
5061;DHT22;2549;52.128;21.068;2024-03-08T10:54:26;7.90;79.60
5061;DHT22;2549;52.128;21.068;2024-03-08T10:56:53;8.00;79.90
5061;DHT22;2549;52.128;21.068;2024-03-08T10:59:22;8.00;79.30
5061;DHT22;2549;52.128;21.068;2024-03-08T11:01:49;8.00;79.40
5061;DHT22;2549;52.128;21.068;2024-03-08T11:04:17;8.10;78.90
5061;DHT22;2549;52.128;21.068;2024-03-08T11:06:51;8.20;77.80
5061;DHT22;2549;52.128;21.068;2024-03-08T11:09:28;8.20;77.40
5061;DHT22;2549;52.128;21.068;2024-03-08T11:12:19;8.20;76.50
5061;DHT22;2549;52.128;21.068;2024-03-08T11:14:48;8.30;75.40
5061;DHT22;2549;52.128;21.068;2024-03-08T11:20:01;8.30;76.00
5061;DHT22;2549;52.128;21.068;2024-03-08T11:22:33;8.30;76.10
5061;DHT22;2549;52.128;21.068;2024-03-08T11:25:04;8.40;75.80
5061;DHT22;2549;52.128;21.068;2024-03-08T11:27:37;8.40;75.30
5061;DHT22;2549;52.128;21.068;2024-03-08T11:30:07;8.40;76.00
5061;DHT22;2549;52.128;21.068;2024-03-08T11:32:50;8.50;76.30
5061;DHT22;2549;52.128;21.068;2024-03-08T11:35:20;8.50;76.10
5061;DHT22;2549;52.128;21.068;2024-03-08T11:37:48;8.60;76.50
5061;DHT22;2549;52.128;21.068;2024-03-08T11:40:15;8.60;75.80
5061;DHT22;2549;52.128;21.068;2024-03-08T11:42:47;8.60;75.70
5061;DHT22;2549;52.128;21.068;2024-03-08T11:45:19;8.70;75.20
5061;DHT22;2549;52.128;21.068;2024-03-08T11:47:48;8.70;75.50
5061;DHT22;2549;52.128;21.068;2024-03-08T11:50:17;8.80;75.30
5061;DHT22;2549;52.128;21.068;2024-03-08T11:52:46;8.90;74.60
5061;DHT22;2549;52.128;21.068;2024-03-08T11:55:14;8.90;73.20
5061;DHT22;2549;52.128;21.068;2024-03-08T11:57:41;8.90;73.40
5061;DHT22;2549;52.128;21.068;2024-03-08T12:00:16;8.90;72.70
5061;DHT22;2549;52.128;21.068;2024-03-08T12:03:07;9.00;72.70
5061;DHT22;2549;52.128;21.068;2024-03-08T12:05:36;9.00;72.10
5061;DHT22;2549;52.128;21.068;2024-03-08T12:08:03;9.00;71.70
5061;DHT22;2549;52.128;21.068;2024-03-08T12:10:32;9.00;72.20
5061;DHT22;2549;52.128;21.068;2024-03-08T12:12:59;9.00;72.50
5061;DHT22;2549;52.128;21.068;2024-03-08T12:15:28;9.10;72.30
5061;DHT22;2549;52.128;21.068;2024-03-08T12:17:56;9.10;71.90
5061;DHT22;2549;52.128;21.068;2024-03-08T12:20:28;9.10;71.50
5061;DHT22;2549;52.128;21.068;2024-03-08T12:22:58;9.20;69.20
5061;DHT22;2549;52.128;21.068;2024-03-08T12:27:56;9.20;68.60
5061;DHT22;2549;52.128;21.068;2024-03-08T12:30:24;9.20;67.50
5061;DHT22;2549;52.128;21.068;2024-03-08T12:32:59;9.20;67.10
5061;DHT22;2549;52.128;21.068;2024-03-08T12:35:28;9.30;65.70
5061;DHT22;2549;52.128;21.068;2024-03-08T12:37:56;9.30;66.10
5061;DHT22;2549;52.128;21.068;2024-03-08T12:40:31;9.40;65.50
5061;DHT22;2549;52.128;21.068;2024-03-08T12:42:59;9.40;65.80
5061;DHT22;2549;52.128;21.068;2024-03-08T12:45:26;9.40;65.30
5061;DHT22;2549;52.128;21.068;2024-03-08T12:47:54;9.40;66.00
5061;DHT22;2549;52.128;21.068;2024-03-08T12:50:22;9.40;66.70
5061;DHT22;2549;52.128;21.068;2024-03-08T12:52:51;9.50;66.40
5061;DHT22;2549;52.128;21.068;2024-03-08T12:55:19;9.50;66.50
5061;DHT22;2549;52.128;21.068;2024-03-08T12:57:47;9.50;66.60
5061;DHT22;2549;52.128;21.068;2024-03-08T13:00:16;9.60;66.30
5061;DHT22;2549;52.128;21.068;2024-03-08T13:02:46;9.60;65.90
5061;DHT22;2549;52.128;21.068;2024-03-08T13:05:14;9.60;65.40
5061;DHT22;2549;52.128;21.068;2024-03-08T13:07:41;9.60;64.70
5061;DHT22;2549;52.128;21.068;2024-03-08T13:10:13;9.60;64.00
5061;DHT22;2549;52.128;21.068;2024-03-08T13:12:44;9.70;64.00
5061;DHT22;2549;52.128;21.068;2024-03-08T13:15:11;9.70;63.40
5061;DHT22;2549;52.128;21.068;2024-03-08T13:17:49;9.70;63.70
5061;DHT22;2549;52.128;21.068;2024-03-08T13:20:17;9.70;63.00
5061;DHT22;2549;52.128;21.068;2024-03-08T13:22:56;9.70;62.40
5061;DHT22;2549;52.128;21.068;2024-03-08T13:25:25;9.70;62.90
5061;DHT22;2549;52.128;21.068;2024-03-08T13:27:52;9.80;63.10
5061;DHT22;2549;52.128;21.068;2024-03-08T13:30:22;9.80;62.90
5061;DHT22;2549;52.128;21.068;2024-03-08T13:32:52;9.90;62.30
5061;DHT22;2549;52.128;21.068;2024-03-08T13:35:19;9.90;62.00
5061;DHT22;2549;52.128;21.068;2024-03-08T13:37:53;9.90;61.70
5061;DHT22;2549;52.128;21.068;2024-03-08T13:40:20;9.90;60.80
5061;DHT22;2549;52.128;21.068;2024-03-08T13:42:48;9.90;61.00
5061;DHT22;2549;52.128;21.068;2024-03-08T13:45:18;10.00;60.40
5061;DHT22;2549;52.128;21.068;2024-03-08T13:47:53;9.90;61.60
5061;DHT22;2549;52.128;21.068;2024-03-08T13:50:21;10.00;60.80
5061;DHT22;2549;52.128;21.068;2024-03-08T13:52:50;10.00;61.80
5061;DHT22;2549;52.128;21.068;2024-03-08T13:55:23;10.00;61.50
5061;DHT22;2549;52.128;21.068;2024-03-08T13:57:50;10.00;61.40
5061;DHT22;2549;52.128;21.068;2024-03-08T14:00:20;10.00;60.60
5061;DHT22;2549;52.128;21.068;2024-03-08T14:02:52;10.10;60.20
5061;DHT22;2549;52.128;21.068;2024-03-08T14:05:20;10.10;60.40
5061;DHT22;2549;52.128;21.068;2024-03-08T14:07:48;10.10;60.30
5061;DHT22;2549;52.128;21.068;2024-03-08T14:10:17;10.10;60.20
5061;DHT22;2549;52.128;21.068;2024-03-08T14:12:47;10.10;60.20
5061;DHT22;2549;52.128;21.068;2024-03-08T14:15:17;10.10;60.00
5061;DHT22;2549;52.128;21.068;2024-03-08T14:17:44;10.10;59.40
5061;DHT22;2549;52.128;21.068;2024-03-08T14:20:14;10.10;58.30
5061;DHT22;2549;52.128;21.068;2024-03-08T14:22:41;10.20;58.20
5061;DHT22;2549;52.128;21.068;2024-03-08T14:25:08;10.10;58.70
5061;DHT22;2549;52.128;21.068;2024-03-08T14:27:45;10.20;59.40
5061;DHT22;2549;52.128;21.068;2024-03-08T14:30:13;10.10;59.70
5061;DHT22;2549;52.128;21.068;2024-03-08T14:32:40;10.20;60.00
5061;DHT22;2549;52.128;21.068;2024-03-08T14:35:08;10.10;59.90
5061;DHT22;2549;52.128;21.068;2024-03-08T14:37:38;10.20;60.10
5061;DHT22;2549;52.128;21.068;2024-03-08T14:40:06;10.20;60.30
5061;DHT22;2549;52.128;21.068;2024-03-08T14:42:35;10.20;60.20
5061;DHT22;2549;52.128;21.068;2024-03-08T14:45:02;10.20;60.60
5061;DHT22;2549;52.128;21.068;2024-03-08T14:47:30;10.20;60.00
5061;DHT22;2549;52.128;21.068;2024-03-08T14:49:57;10.20;59.70
5061;DHT22;2549;52.128;21.068;2024-03-08T14:52:24;10.20;60.00
5061;DHT22;2549;52.128;21.068;2024-03-08T14:54:54;10.20;59.60
5061;DHT22;2549;52.128;21.068;2024-03-08T14:57:22;10.20;59.50
5061;DHT22;2549;52.128;21.068;2024-03-08T14:59:49;10.20;59.20
5061;DHT22;2549;52.128;21.068;2024-03-08T15:02:17;10.20;58.40
5061;DHT22;2549;52.128;21.068;2024-03-08T15:04:48;10.10;57.80
5061;DHT22;2549;52.128;21.068;2024-03-08T15:07:24;10.10;58.30
5061;DHT22;2549;52.128;21.068;2024-03-08T15:09:57;10.20;58.70
5061;DHT22;2549;52.128;21.068;2024-03-08T15:12:24;10.20;58.50
5061;DHT22;2549;52.128;21.068;2024-03-08T15:14:53;10.10;58.40
5061;DHT22;2549;52.128;21.068;2024-03-08T15:17:23;10.10;58.30
5061;DHT22;2549;52.128;21.068;2024-03-08T15:19:51;10.10;58.50
5061;DHT22;2549;52.128;21.068;2024-03-08T15:22:19;10.10;58.50
5061;DHT22;2549;52.128;21.068;2024-03-08T15:24:46;10.10;59.10
5061;DHT22;2549;52.128;21.068;2024-03-08T15:27:12;10.20;59.50
5061;DHT22;2549;52.128;21.068;2024-03-08T15:29:39;10.10;59.50
5061;DHT22;2549;52.128;21.068;2024-03-08T15:32:06;10.10;59.90
5061;DHT22;2549;52.128;21.068;2024-03-08T15:34:36;10.10;59.20
5061;DHT22;2549;52.128;21.068;2024-03-08T15:37:05;10.10;59.60
5061;DHT22;2549;52.128;21.068;2024-03-08T15:39:32;10.10;59.60
5061;DHT22;2549;52.128;21.068;2024-03-08T15:42:00;10.10;59.70
5061;DHT22;2549;52.128;21.068;2024-03-08T15:44:27;10.10;59.50
5061;DHT22;2549;52.128;21.068;2024-03-08T15:46:55;10.10;59.30
5061;DHT22;2549;52.128;21.068;2024-03-08T15:49:22;10.10;60.10
5061;DHT22;2549;52.128;21.068;2024-03-08T15:51:51;10.00;59.70
5061;DHT22;2549;52.128;21.068;2024-03-08T15:54:18;10.00;60.40
5061;DHT22;2549;52.128;21.068;2024-03-08T15:56:45;10.00;60.80
5061;DHT22;2549;52.128;21.068;2024-03-08T15:59:12;10.00;61.30
5061;DHT22;2549;52.128;21.068;2024-03-08T16:01:39;9.90;62.80
5061;DHT22;2549;52.128;21.068;2024-03-08T16:04:06;9.90;63.40
5061;DHT22;2549;52.128;21.068;2024-03-08T16:06:33;9.90;63.50
5061;DHT22;2549;52.128;21.068;2024-03-08T16:09:03;9.90;63.90
5061;DHT22;2549;52.128;21.068;2024-03-08T16:11:30;9.90;64.20
5061;DHT22;2549;52.128;21.068;2024-03-08T16:14:00;9.80;64.40
5061;DHT22;2549;52.128;21.068;2024-03-08T16:16:30;9.80;64.70
5061;DHT22;2549;52.128;21.068;2024-03-08T16:18:57;9.80;64.60